Time;durP1;ratioP1;P1;durP2;ratioP2;P2;SDS_P1;SDS_P2;PMS_P1;PMS_P2;Temp;Humidity;BMP_temperature;BMP_pressure;BME280_temperature;BME280_humidity;BME280_pressure;Samples;Min_cycle;Max_cycle;Signal;HPM_P1;HPM_P2
2021/01/13 00:00:50;;;;;;;5.78;4.35;;;6.40;68.40;;;;;;2105923;28;20032;-60
2021/01/13 00:02:11;;;;;;;11.35;5.07;;;6.30;68.40;;;;;;2104021;28;20040;-60
2021/01/13 00:03:32;;;;;;;10.57;4.97;;;6.30;68.30;;;;;;2105874;28;20055;-60
2021/01/13 00:04:53;;;;;;;11.57;4.70;;;6.30;68.40;;;;;;2101046;28;20115;-60
2021/01/13 00:06:15;;;;;;;11.93;5.30;;;6.30;68.40;;;;;;2104656;28;20673;-60
2021/01/13 00:07:36;;;;;;;8.10;4.85;;;6.30;68.40;;;;;;2104529;28;20046;-60
2021/01/13 00:08:57;;;;;;;9.55;4.82;;;6.30;68.40;;;;;;2105773;28;20142;-60
2021/01/13 00:10:19;;;;;;;9.02;4.55;;;6.30;68.50;;;;;;2104007;28;20055;-60
2021/01/13 00:11:40;;;;;;;8.95;4.70;;;6.30;68.50;;;;;;2104632;28;20131;-59
2021/01/13 00:13:02;;;;;;;9.13;4.78;;;6.30;68.50;;;;;;2105902;28;20032;-60
2021/01/13 00:14:24;;;;;;;9.20;4.50;;;6.30;68.50;;;;;;2105718;28;20032;-60
2021/01/13 00:15:45;;;;;;;8.38;4.40;;;6.30;68.50;;;;;;2103533;28;20025;-59
2021/01/13 00:17:07;;;;;;;10.05;4.18;;;6.30;68.50;;;;;;2102350;28;20035;-60
2021/01/13 00:18:27;;;;;;;7.63;4.50;;;6.30;68.50;;;;;;2103186;28;20094;-59
2021/01/13 00:19:48;;;;;;;8.15;4.07;;;6.30;68.50;;;;;;2104440;28;20020;-60
2021/01/13 00:21:17;;;;;;;9.43;4.60;;;6.30;68.60;;;;;;2107925;28;20103;-60
2021/01/13 00:22:38;;;;;;;7.95;4.65;;;6.30;68.70;;;;;;2105600;28;20032;-61
2021/01/13 00:23:58;;;;;;;9.15;4.95;;;6.30;68.60;;;;;;2104600;28;20028;-61
2021/01/13 00:25:19;;;;;;;7.32;4.13;;;6.30;68.60;;;;;;2106573;28;20038;-62
2021/01/13 00:26:41;;;;;;;7.95;4.95;;;6.30;68.60;;;;;;2105253;28;20043;-61
2021/01/13 00:28:03;;;;;;;6.22;4.50;;;6.30;68.60;;;;;;2094898;28;20032;-61
2021/01/13 00:29:24;;;;;;;7.65;4.63;;;6.20;68.60;;;;;;2105099;28;20359;-61
2021/01/13 00:30:45;;;;;;;7.40;4.78;;;6.30;68.70;;;;;;2106398;28;20126;-61
2021/01/13 00:32:06;;;;;;;6.72;5.03;;;6.30;68.60;;;;;;2106555;28;20031;-61
2021/01/13 00:33:27;;;;;;;11.18;4.82;;;6.30;68.60;;;;;;2098733;28;20024;-61
2021/01/13 00:34:48;;;;;;;8.18;4.60;;;6.20;68.60;;;;;;2102487;28;20057;-61
2021/01/13 00:36:09;;;;;;;10.20;4.80;;;6.30;68.60;;;;;;2107403;28;20028;-61
2021/01/13 00:37:30;;;;;;;7.13;3.72;;;6.20;68.60;;;;;;2105962;28;20115;-59
2021/01/13 00:38:51;;;;;;;11.10;4.72;;;6.20;68.60;;;;;;2106291;28;20078;-59
2021/01/13 00:40:13;;;;;;;8.60;4.60;;;6.20;68.70;;;;;;2107553;28;20047;-60
2021/01/13 00:41:38;;;;;;;9.50;4.22;;;6.30;68.80;;;;;;2105515;28;20016;-60
2021/01/13 00:42:59;;;;;;;10.30;4.95;;;6.20;68.70;;;;;;2106328;28;20016;-60
2021/01/13 00:44:20;;;;;;;9.48;5.18;;;6.20;68.70;;;;;;2106831;28;20490;-59
2021/01/13 00:45:41;;;;;;;9.10;4.80;;;6.20;68.70;;;;;;2105148;28;20027;-61
2021/01/13 00:47:02;;;;;;;14.48;5.78;;;6.20;68.70;;;;;;2103998;28;20028;-61
2021/01/13 00:48:24;;;;;;;7.10;4.93;;;6.20;68.70;;;;;;2106162;28;20031;-60
2021/01/13 00:49:45;;;;;;;7.93;4.70;;;6.20;68.70;;;;;;2106824;28;20028;-61
2021/01/13 00:51:06;;;;;;;9.02;5.50;;;6.20;68.70;;;;;;2106813;28;20038;-60
2021/01/13 00:52:27;;;;;;;10.30;4.78;;;6.20;68.70;;;;;;2106127;28;20028;-60
2021/01/13 00:53:48;;;;;;;9.65;5.45;;;6.20;68.60;;;;;;2106209;28;20039;-61
2021/01/13 00:55:09;;;;;;;11.52;5.20;;;6.20;68.70;;;;;;2104826;28;20533;-60
2021/01/13 00:56:30;;;;;;;11.52;5.35;;;6.20;68.70;;;;;;2105495;28;20059;-60
2021/01/13 00:57:52;;;;;;;10.25;5.82;;;6.20;68.70;;;;;;2107003;28;20099;-60
2021/01/13 00:59:13;;;;;;;9.80;5.22;;;6.20;68.70;;;;;;2106536;28;20070;-59
2021/01/13 01:00:34;;;;;;;8.65;5.57;;;6.20;68.70;;;;;;2106200;28;20082;-60
2021/01/13 01:01:55;;;;;;;9.00;5.65;;;6.20;68.70;;;;;;2109332;28;20028;-60
2021/01/13 01:03:17;;;;;;;11.68;5.70;;;6.20;68.70;;;;;;2106489;28;20071;-60
2021/01/13 01:04:38;;;;;;;7.45;5.28;;;6.20;68.80;;;;;;2106517;28;20035;-61
2021/01/13 01:05:59;;;;;;;9.88;5.90;;;6.20;68.80;;;;;;2102881;28;20020;-60
2021/01/13 01:07:20;;;;;;;10.20;5.95;;;6.20;68.80;;;;;;2105513;28;20043;-61
2021/01/13 01:08:40;;;;;;;14.68;5.97;;;6.20;68.90;;;;;;2106735;28;20028;-60
2021/01/13 01:10:01;;;;;;;9.45;6.38;;;6.20;68.90;;;;;;2106096;28;20028;-60
2021/01/13 01:11:33;;;;;;;7.32;5.50;;;6.20;68.90;;;;;;2106099;28;20577;-60
2021/01/13 01:12:54;;;;;;;9.25;5.68;;;6.20;69.00;;;;;;2107151;28;20039;-61
2021/01/13 01:14:15;;;;;;;10.18;6.70;;;6.20;69.00;;;;;;2106378;28;20062;-61
2021/01/13 01:15:36;;;;;;;9.55;6.22;;;6.20;69.00;;;;;;2106264;28;20024;-60
2021/01/13 01:16:56;;;;;;;9.38;6.18;;;6.20;69.00;;;;;;2106548;28;20454;-61
2021/01/13 01:18:17;;;;;;;9.90;5.97;;;6.20;69.00;;;;;;2105877;28;20024;-60
2021/01/13 01:19:38;;;;;;;11.48;6.07;;;6.20;69.10;;;;;;2106654;28;20024;-61
2021/01/13 01:20:59;;;;;;;10.88;5.50;;;6.20;69.20;;;;;;2106715;28;20032;-61
2021/01/13 01:22:20;;;;;;;12.13;6.22;;;6.20;69.30;;;;;;2105453;28;20528;-60
2021/01/13 01:23:41;;;;;;;11.98;6.03;;;6.20;69.30;;;;;;2106075;28;20024;-61
2021/01/13 01:25:02;;;;;;;8.68;6.05;;;6.20;69.30;;;;;;2107630;28;20030;-60
2021/01/13 01:26:23;;;;;;;11.02;6.25;;;6.20;69.30;;;;;;2109424;28;20050;-61
2021/01/13 01:27:50;;;;;;;9.05;6.43;;;6.20;69.40;;;;;;2106410;28;20028;-61
2021/01/13 01:29:11;;;;;;;10.75;6.65;;;6.30;69.50;;;;;;2105955;28;20028;-61
2021/01/13 01:30:32;;;;;;;9.07;6.78;;;6.30;69.50;;;;;;2106818;28;20582;-59
2021/01/13 01:31:53;;;;;;;12.27;6.25;;;6.30;69.50;;;;;;2105908;28;20118;-62
2021/01/13 01:33:14;;;;;;;12.48;6.75;;;6.30;69.50;;;;;;2105907;28;20024;-61
2021/01/13 01:34:35;;;;;;;15.15;7.40;;;6.30;69.40;;;;;;2106527;28;20034;-61
2021/01/13 01:35:55;;;;;;;12.98;6.97;;;6.30;69.40;;;;;;2104748;28;20466;-61
2021/01/13 01:37:16;;;;;;;11.40;7.00;;;6.40;69.40;;;;;;2106523;28;20111;-59
2021/01/13 01:38:40;;;;;;;10.80;6.53;;;6.40;69.40;;;;;;2106894;28;20032;-59
2021/01/13 01:40:03;;;;;;;10.30;7.40;;;6.30;69.30;;;;;;2104099;28;20105;-60
2021/01/13 01:41:24;;;;;;;14.68;7.50;;;6.40;69.30;;;;;;2107017;28;20024;-59
2021/01/13 01:42:45;;;;;;;14.65;7.30;;;6.40;69.20;;;;;;2105113;28;20097;-59
2021/01/13 01:44:05;;;;;;;12.50;7.38;;;6.40;69.10;;;;;;2105065;28;20072;-59
2021/01/13 01:45:29;;;;;;;12.00;7.28;;;6.40;69.10;;;;;;2104686;28;20425;-60
2021/01/13 01:46:55;;;;;;;13.98;6.75;;;6.40;69.00;;;;;;2106093;28;20039;-59
2021/01/13 01:48:33;;;;;;;10.23;7.57;;;6.40;69.00;;;;;;2105145;28;20028;-61
2021/01/13 01:49:54;;;;;;;12.88;7.43;;;6.40;68.90;;;;;;2106008;28;20027;-60
2021/01/13 01:51:40;;;;;;;8.82;7.15;;;6.40;68.80;;;;;;2105554;28;20027;-60
2021/01/13 01:53:13;;;;;;;11.98;7.63;;;6.40;68.80;;;;;;2103723;28;20040;-60
2021/01/13 01:54:37;;;;;;;15.13;7.50;;;6.40;68.70;;;;;;2106001;28;20090;-59
2021/01/13 01:56:23;;;;;;;9.30;7.18;;;6.40;68.70;;;;;;2106165;28;20095;-60
2021/01/13 01:57:46;;;;;;;10.75;7.20;;;6.40;68.80;;;;;;2103784;28;20020;-60
2021/01/13 01:59:11;;;;;;;13.27;7.80;;;6.40;68.60;;;;;;2104487;28;20542;-60
2021/01/13 02:00:33;;;;;;;12.50;7.43;;;6.40;68.70;;;;;;2105472;28;20039;-60
2021/01/13 02:01:58;;;;;;;14.65;8.50;;;6.40;68.70;;;;;;2106166;28;20016;-60
2021/01/13 02:03:21;;;;;;;12.25;8.45;;;6.30;68.60;;;;;;2105070;28;20028;-60
2021/01/13 02:04:43;;;;;;;12.88;7.72;;;6.30;68.70;;;;;;2105127;28;20058;-60
2021/01/13 02:06:07;;;;;;;13.32;7.38;;;6.30;68.70;;;;;;2103445;28;20040;-60
2021/01/13 02:07:33;;;;;;;13.25;7.53;;;6.30;68.70;;;;;;2106773;28;20032;-59
2021/01/13 02:08:54;;;;;;;11.68;8.05;;;6.30;69.50;;;;;;2105837;28;20545;-59
2021/01/13 02:10:15;;;;;;;8.60;7.65;;;6.30;68.80;;;;;;2105432;28;20127;-60
2021/01/13 02:11:44;;;;;;;14.27;7.50;;;6.30;68.90;;;;;;2104711;28;20024;-59
2021/01/13 02:13:08;;;;;;;11.85;7.95;;;6.30;69.10;;;;;;2104650;28;20704;-60
2021/01/13 02:14:29;;;;;;;11.88;7.88;;;6.30;69.10;;;;;;2105470;28;20103;-59
2021/01/13 02:15:50;;;;;;;15.75;8.50;;;6.30;69.10;;;;;;2106140;28;20016;-59
2021/01/13 02:17:11;;;;;;;11.35;7.40;;;6.30;69.30;;;;;;2107743;28;20021;-60
2021/01/13 02:18:35;;;;;;;16.13;8.10;;;6.30;69.30;;;;;;2102666;28;20016;-61
2021/01/13 02:20:10;;;;;;;14.85;8.27;;;6.30;69.30;;;;;;2105465;28;20063;-60
2021/01/13 02:21:35;;;;;;;13.07;7.85;;;6.30;69.40;;;;;;2104786;28;20051;-59
2021/01/13 02:23:28;;;;;;;12.88;8.70;;;6.30;69.40;;;;;;2104585;28;20327;-60
2021/01/13 02:25:13;;;;;;;12.05;7.90;;;6.30;69.40;;;;;;2106530;28;20039;-61
2021/01/13 02:27:11;;;;;;;12.38;8.25;;;6.30;69.30;;;;;;2077630;28;20479;-59
2021/01/13 02:28:41;;;;;;;13.77;7.70;;;6.30;69.20;;;;;;2104379;28;20070;-60
2021/01/13 02:30:05;;;;;;;13.13;7.68;;;6.40;69.20;;;;;;2103086;28;20032;-59
2021/01/13 02:31:51;;;;;;;12.00;8.02;;;6.30;69.10;;;;;;2106657;28;20027;-61
2021/01/13 02:33:32;;;;;;;11.50;7.60;;;6.40;69.10;;;;;;2100113;28;20027;-60
2021/01/13 02:35:04;;;;;;;11.93;7.65;;;6.40;69.00;;;;;;2093204;28;20028;-61
2021/01/13 02:36:59;;;;;;;12.10;7.47;;;6.40;68.90;;;;;;2104743;28;20028;-59
2021/01/13 02:38:23;;;;;;;9.48;7.82;;;6.40;69.00;;;;;;2105454;28;20056;-60
2021/01/13 02:39:45;;;;;;;15.40;8.45;;;6.40;68.90;;;;;;2105413;28;20024;-59
2021/01/13 02:41:15;;;;;;;12.90;7.57;;;6.30;68.80;;;;;;2103255;28;20047;-59
2021/01/13 02:42:39;;;;;;;11.90;8.07;;;6.30;68.80;;;;;;2097895;28;20032;-60
2021/01/13 02:44:09;;;;;;;10.27;7.88;;;6.30;68.70;;;;;;2103807;28;20032;-60
2021/01/13 02:45:37;;;;;;;15.35;9.05;;;6.30;68.80;;;;;;2104784;28;20026;-60
2021/01/13 02:46:58;;;;;;;11.50;8.15;;;6.30;68.80;;;;;;2100599;28;20451;-60
2021/01/13 02:48:23;;;;;;;16.00;8.50;;;6.30;68.80;;;;;;2103314;28;20410;-60
2021/01/13 02:49:50;;;;;;;11.35;8.43;;;6.30;68.80;;;;;;2105088;28;20032;-60
2021/01/13 02:51:24;;;;;;;14.98;9.13;;;6.30;68.80;;;;;;2104247;28;20017;-60
2021/01/13 02:53:09;;;;;;;12.68;7.80;;;6.30;69.00;;;;;;2105164;28;20030;-60
2021/01/13 02:54:34;;;;;;;14.20;7.95;;;6.30;68.90;;;;;;2104918;28;20070;-60
2021/01/13 02:55:55;;;;;;;10.48;7.53;;;6.20;68.70;;;;;;2097790;28;20020;-60
2021/01/13 02:57:17;;;;;;;8.20;7.38;;;6.20;68.70;;;;;;2101225;28;20039;-60
2021/01/13 02:58:40;;;;;;;10.00;7.47;;;6.30;68.80;;;;;;2105121;28;20020;-61
2021/01/13 03:00:05;;;;;;;14.38;7.43;;;6.30;68.80;;;;;;2104252;28;20119;-60
2021/01/13 03:01:29;;;;;;;12.93;8.02;;;6.20;68.90;;;;;;2106305;28;20027;-60
2021/01/13 03:02:51;;;;;;;11.95;8.00;;;6.20;68.90;;;;;;2105459;28;20036;-61
2021/01/13 03:04:13;;;;;;;17.67;8.65;;;6.20;69.00;;;;;;2104856;28;20060;-60
2021/01/13 03:05:34;;;;;;;10.55;7.80;;;6.20;69.00;;;;;;2105067;28;20021;-59
2021/01/13 03:06:59;;;;;;;12.48;8.25;;;6.20;69.00;;;;;;2104738;28;20020;-61
2021/01/13 03:08:33;;;;;;;13.00;8.32;;;6.20;69.00;;;;;;2104433;28;20035;-60
2021/01/13 03:09:57;;;;;;;12.60;8.55;;;6.20;69.00;;;;;;2105507;28;20074;-61
2021/01/13 03:11:21;;;;;;;13.52;9.65;;;6.20;69.00;;;;;;2105050;28;20020;-60
2021/01/13 03:12:42;;;;;;;13.65;8.32;;;6.20;69.10;;;;;;2106398;28;20072;-60
2021/01/13 03:14:14;;;;;;;12.70;8.27;;;6.20;69.00;;;;;;2104797;28;20035;-60
2021/01/13 03:15:37;;;;;;;14.27;8.00;;;6.20;69.00;;;;;;2104791;28;20043;-60
2021/01/13 03:17:28;;;;;;;13.57;9.05;;;6.20;69.00;;;;;;2105597;28;20531;-60
2021/01/13 03:19:03;;;;;;;14.15;8.15;;;6.20;69.20;;;;;;2106323;28;20117;-61
2021/01/13 03:20:26;;;;;;;10.88;7.75;;;6.20;69.20;;;;;;2105587;28;20056;-60
2021/01/13 03:22:09;;;;;;;11.75;7.95;;;6.20;69.10;;;;;;2105503;28;20025;-62
2021/01/13 03:23:48;;;;;;;15.57;8.43;;;6.20;69.20;;;;;;2103144;28;20031;-60
2021/01/13 03:25:11;;;;;;;11.30;7.97;;;6.20;69.20;;;;;;2103698;28;20032;-60
2021/01/13 03:26:37;;;;;;;18.70;8.70;;;6.20;69.20;;;;;;2103469;28;20027;-60
2021/01/13 03:27:59;;;;;;;12.38;8.00;;;6.30;69.30;;;;;;2102244;28;20050;-61
2021/01/13 03:29:21;;;;;;;13.77;8.40;;;6.20;69.30;;;;;;2104712;28;20354;-60
2021/01/13 03:30:46;;;;;;;11.88;7.88;;;6.20;69.30;;;;;;2107005;28;20035;-60
2021/01/13 03:32:11;;;;;;;12.00;7.78;;;6.20;69.30;;;;;;2094927;28;20096;-61
2021/01/13 03:33:38;;;;;;;11.52;7.70;;;6.20;69.30;;;;;;2103877;28;20466;-60
2021/01/13 03:35:14;;;;;;;15.43;8.23;;;6.30;69.40;;;;;;2106090;28;20161;-60
2021/01/13 03:36:52;;;;;;;11.95;8.02;;;6.20;69.40;;;;;;2103778;28;20031;-60
2021/01/13 03:38:18;;;;;;;11.32;7.30;;;6.20;69.40;;;;;;2103266;28;20063;-60
2021/01/13 03:39:39;;;;;;;13.77;7.75;;;6.30;69.50;;;;;;2104778;28;20089;-61
2021/01/13 03:41:06;;;;;;;10.77;7.60;;;6.30;69.50;;;;;;2095208;28;20040;-60
2021/01/13 03:42:35;;;;;;;12.55;8.30;;;6.20;69.50;;;;;;2101281;28;20020;-62
2021/01/13 03:44:02;;;;;;;11.27;8.00;;;6.30;69.60;;;;;;2106139;28;20397;-60
2021/01/13 03:45:45;;;;;;;12.02;7.97;;;6.30;69.60;;;;;;2106128;28;20063;-61
2021/01/13 03:47:40;;;;;;;11.75;7.95;;;6.30;69.60;;;;;;2103247;28;20024;-60
2021/01/13 03:49:03;;;;;;;14.70;8.07;;;6.30;69.60;;;;;;2101494;28;20119;-60
2021/01/13 03:50:33;;;;;;;15.80;7.82;;;6.30;69.50;;;;;;2103492;28;20032;-61
2021/01/13 03:52:02;;;;;;;12.43;8.30;;;6.30;69.50;;;;;;2105511;28;20024;-61
2021/01/13 03:53:27;;;;;;;11.13;8.05;;;6.30;69.50;;;;;;2104917;28;20087;-60
2021/01/13 03:54:51;;;;;;;12.13;7.80;;;6.40;69.50;;;;;;2105703;28;20398;-60
2021/01/13 03:56:24;;;;;;;8.60;7.70;;;6.30;69.50;;;;;;2107124;28;20086;-60
2021/01/13 03:57:57;;;;;;;11.93;7.18;;;6.40;69.60;;;;;;2106249;28;20032;-60
2021/01/13 03:59:28;;;;;;;13.02;7.63;;;6.30;69.50;;;;;;2107868;28;20131;-60
2021/01/13 04:01:15;;;;;;;11.25;7.30;;;6.40;69.50;;;;;;2105871;28;20417;-60
2021/01/13 04:03:09;;;;;;;13.93;7.95;;;6.30;69.50;;;;;;2105599;28;20036;-60
2021/01/13 04:04:36;;;;;;;11.60;7.63;;;6.40;69.50;;;;;;2102615;28;20054;-60
2021/01/13 04:06:09;;;;;;;10.90;7.72;;;6.40;69.50;;;;;;2103517;28;20032;-60
2021/01/13 04:07:38;;;;;;;13.32;7.53;;;6.40;69.50;;;;;;2103888;28;20040;-60
2021/01/13 04:09:01;;;;;;;14.32;7.03;;;6.40;69.40;;;;;;2102725;28;20024;-60
2021/01/13 04:10:23;;;;;;;12.68;7.72;;;6.40;69.40;;;;;;2105828;28;20710;-60
2021/01/13 04:11:49;;;;;;;16.60;7.97;;;6.40;69.50;;;;;;2105212;28;20039;-60
2021/01/13 04:13:39;;;;;;;11.90;7.70;;;6.40;69.50;;;;;;2107272;28;20432;-60
2021/01/13 04:15:00;;;;;;;12.50;7.28;;;6.40;69.70;;;;;;2106793;28;20105;-60
2021/01/13 04:16:22;;;;;;;13.65;7.50;;;6.40;69.70;;;;;;2106581;28;20071;-60
2021/01/13 04:17:46;;;;;;;11.52;7.07;;;6.40;69.70;;;;;;2106454;28;20028;-60
2021/01/13 04:19:07;;;;;;;10.82;7.00;;;6.40;69.70;;;;;;2105650;28;20024;-60
2021/01/13 04:20:28;;;;;;;9.77;7.03;;;6.40;69.80;;;;;;2105543;28;20039;-60
2021/01/13 04:21:51;;;;;;;11.57;6.90;;;6.40;69.90;;;;;;2105725;28;20031;-60
2021/01/13 04:23:12;;;;;;;11.60;7.00;;;6.40;69.90;;;;;;2106971;28;20035;-61
2021/01/13 04:24:33;;;;;;;17.25;8.00;;;6.40;70.00;;;;;;2105310;28;20032;-60
2021/01/13 04:25:55;;;;;;;11.05;7.13;;;6.40;70.00;;;;;;2106547;28;20501;-60
2021/01/13 04:27:19;;;;;;;10.88;6.75;;;6.40;70.00;;;;;;2108022;28;20086;-60
2021/01/13 04:28:41;;;;;;;12.07;6.68;;;6.50;70.00;;;;;;2097730;28;20136;-60
2021/01/13 04:30:03;;;;;;;12.25;6.85;;;6.50;70.00;;;;;;2105873;28;20035;-60
2021/01/13 04:31:25;;;;;;;10.60;7.03;;;6.50;70.00;;;;;;2106605;28;20032;-60
2021/01/13 04:32:46;;;;;;;12.45;7.05;;;6.50;70.00;;;;;;2106496;28;20092;-60
2021/01/13 04:34:07;;;;;;;9.32;6.60;;;6.50;69.90;;;;;;2105053;28;20127;-60
2021/01/13 04:35:28;;;;;;;12.00;6.07;;;6.50;69.90;;;;;;2104653;28;20042;-59
2021/01/13 04:36:50;;;;;;;10.65;7.43;;;6.50;69.80;;;;;;2106972;28;20021;-61
2021/01/13 04:38:12;;;;;;;9.25;6.65;;;6.50;69.90;;;;;;2105848;28;20460;-60
2021/01/13 04:39:34;;;;;;;12.13;6.72;;;6.50;69.80;;;;;;2105707;28;20115;-60
2021/01/13 04:41:10;;;;;;;10.02;7.25;;;6.50;69.80;;;;;;2107701;28;20025;-60
2021/01/13 04:42:57;;;;;;;11.43;6.53;;;6.60;69.90;;;;;;2105655;28;20031;-60
2021/01/13 04:44:20;;;;;;;9.90;7.00;;;6.50;69.80;;;;;;2097240;28;20039;-60
2021/01/13 04:45:44;;;;;;;9.27;6.57;;;6.60;69.80;;;;;;2107028;28;20043;-60
2021/01/13 04:47:09;;;;;;;9.40;6.30;;;6.60;69.80;;;;;;2106701;28;20027;-60
2021/01/13 04:48:40;;;;;;;9.95;6.47;;;6.60;69.80;;;;;;2105746;28;20052;-60
2021/01/13 04:50:02;;;;;;;10.82;6.35;;;6.60;69.90;;;;;;2106725;28;20036;-60
2021/01/13 04:51:24;;;;;;;13.57;7.25;;;6.60;69.80;;;;;;2106410;28;20125;-60
2021/01/13 04:52:58;;;;;;;9.90;6.57;;;6.60;69.80;;;;;;2106136;28;20047;-60
2021/01/13 04:54:19;;;;;;;11.50;6.82;;;6.60;69.70;;;;;;2105420;28;20035;-60
2021/01/13 04:55:55;;;;;;;8.98;6.82;;;6.60;69.60;;;;;;2105950;28;20429;-60
2021/01/13 04:57:17;;;;;;;10.45;6.63;;;6.60;69.60;;;;;;2105006;28;20040;-60
2021/01/13 04:58:59;;;;;;;13.32;7.25;;;6.60;69.60;;;;;;2098292;28;20336;-60
2021/01/13 05:01:05;;;;;;;11.27;7.07;;;6.60;69.50;;;;;;2107463;28;20035;-60
2021/01/13 05:02:52;;;;;;;9.55;6.35;;;6.60;69.50;;;;;;2099108;28;20036;-60
2021/01/13 05:04:27;;;;;;;11.43;6.30;;;6.60;69.50;;;;;;2106115;28;20028;-60
2021/01/13 05:06:17;;;;;;;14.52;7.53;;;6.60;69.40;;;;;;2104542;28;20040;-61
2021/01/13 05:07:42;;;;;;;11.30;7.30;;;6.60;69.40;;;;;;2105614;28;20012;-60
2021/01/13 05:09:05;;;;;;;11.60;6.93;;;6.70;69.40;;;;;;2102951;28;20028;-60
2021/01/13 05:10:27;;;;;;;12.90;7.00;;;6.60;69.40;;;;;;2107596;28;20413;-59
2021/01/13 05:11:49;;;;;;;14.77;7.78;;;6.60;69.40;;;;;;2106464;28;20033;-60
2021/01/13 05:13:16;;;;;;;8.95;6.80;;;6.60;69.40;;;;;;2104474;28;20485;-60
2021/01/13 05:14:45;;;;;;;12.55;7.70;;;6.60;69.50;;;;;;2105298;28;20024;-59
2021/01/13 05:16:13;;;;;;;12.68;7.22;;;6.60;69.70;;;;;;2105456;28;20012;-60
2021/01/13 05:17:35;;;;;;;11.65;6.70;;;6.60;69.50;;;;;;2104664;28;20528;-60
2021/01/13 05:18:59;;;;;;;10.00;7.10;;;6.60;69.60;;;;;;2105477;28;20039;-61
2021/01/13 05:20:25;;;;;;;11.48;7.45;;;6.60;69.60;;;;;;2104908;28;20031;-60
2021/01/13 05:21:54;;;;;;;12.50;7.93;;;6.60;69.60;;;;;;2103942;28;20571;-59
2021/01/13 05:23:15;;;;;;;13.65;7.95;;;6.60;69.60;;;;;;2105495;28;20032;-61
2021/01/13 05:24:40;;;;;;;12.18;7.38;;;6.60;69.70;;;;;;2104709;28;20062;-61
2021/01/13 05:26:01;;;;;;;14.35;7.50;;;6.60;69.70;;;;;;2103117;28;20039;-60
2021/01/13 05:27:46;;;;;;;13.50;7.55;;;6.60;69.70;;;;;;2097627;28;20025;-60
2021/01/13 05:29:37;;;;;;;11.13;6.95;;;6.60;69.70;;;;;;2105155;28;20028;-61
2021/01/13 05:30:59;;;;;;;9.60;6.53;;;6.70;69.80;;;;;;2104946;28;20036;-60
2021/01/13 05:32:21;;;;;;;9.02;7.65;;;6.70;69.70;;;;;;2104835;28;20043;-60
2021/01/13 05:33:41;;;;;;;12.50;7.55;;;6.60;69.60;;;;;;2096360;28;20033;-60
2021/01/13 05:35:03;;;;;;;11.73;7.28;;;6.60;69.60;;;;;;2100208;28;20032;-61
2021/01/13 05:36:29;;;;;;;13.23;7.63;;;6.70;69.70;;;;;;2106603;28;20530;-59
2021/01/13 05:38:02;;;;;;;13.30;7.60;;;6.70;69.70;;;;;;2105108;28;20560;-60
2021/01/13 05:39:24;;;;;;;14.73;7.57;;;6.70;69.70;;;;;;2104009;28;20028;-60
2021/01/13 05:40:48;;;;;;;13.05;7.28;;;6.70;69.70;;;;;;2105641;28;20020;-60
2021/01/13 05:42:10;;;;;;;10.85;7.35;;;6.70;69.80;;;;;;2105539;28;20031;-61
2021/01/13 05:43:31;;;;;;;11.50;7.78;;;6.70;69.80;;;;;;2103166;28;20127;-61
2021/01/13 05:44:53;;;;;;;11.18;7.78;;;6.70;69.80;;;;;;2105602;28;20028;-61
2021/01/13 05:46:19;;;;;;;11.30;7.57;;;6.70;69.80;;;;;;2103024;28;20039;-61
2021/01/13 05:47:42;;;;;;;10.75;7.20;;;6.70;69.80;;;;;;2102355;28;20024;-62
2021/01/13 05:49:05;;;;;;;9.18;6.97;;;6.70;69.90;;;;;;2103188;28;20036;-61
2021/01/13 05:50:26;;;;;;;10.88;7.25;;;6.70;69.90;;;;;;2105591;28;20516;-61
2021/01/13 05:51:47;;;;;;;9.95;6.38;;;6.70;69.90;;;;;;2098701;28;20093;-61
2021/01/13 05:53:09;;;;;;;13.00;7.43;;;6.70;69.90;;;;;;2104308;28;20114;-60
2021/01/13 05:54:32;;;;;;;10.75;7.38;;;6.80;70.10;;;;;;2105076;28;20042;-60
2021/01/13 05:55:54;;;;;;;12.45;7.88;;;6.70;70.00;;;;;;2105124;28;20092;-61
2021/01/13 05:57:19;;;;;;;10.15;7.45;;;6.70;69.90;;;;;;2103840;28;20099;-61
2021/01/13 05:58:40;;;;;;;14.38;7.80;;;6.70;69.90;;;;;;2105574;28;20399;-60
2021/01/13 06:00:03;;;;;;;11.75;7.88;;;6.70;69.90;;;;;;2101054;28;20035;-61
2021/01/13 06:01:48;;;;;;;16.67;8.65;;;6.70;69.70;;;;;;2105532;28;20600;-60
2021/01/13 06:03:11;;;;;;;11.23;8.23;;;6.70;69.70;;;;;;2104435;28;20024;-60
2021/01/13 06:04:35;;;;;;;16.13;7.43;;;6.80;69.60;;;;;;2103465;28;20028;-60
2021/01/13 06:06:00;;;;;;;11.55;7.75;;;6.70;69.60;;;;;;2100646;28;20024;-60
2021/01/13 06:07:28;;;;;;;14.48;8.82;;;6.70;69.50;;;;;;2105028;28;20031;-59
2021/01/13 06:08:50;;;;;;;18.05;8.55;;;6.70;69.50;;;;;;2104493;28;20032;-61
2021/01/13 06:10:12;;;;;;;15.23;8.15;;;6.70;69.40;;;;;;2104678;28;20031;-61
2021/01/13 06:11:36;;;;;;;16.52;7.38;;;6.70;69.40;;;;;;2103849;28;20028;-61
2021/01/13 06:13:00;;;;;;;13.13;7.88;;;6.70;69.30;;;;;;2105880;28;20077;-61
2021/01/13 06:14:26;;;;;;;10.80;8.23;;;6.70;69.30;;;;;;2105497;28;20721;-61
2021/01/13 06:15:47;;;;;;;12.85;7.88;;;6.70;69.30;;;;;;2104458;28;20024;-61
2021/01/13 06:17:18;;;;;;;16.75;8.05;;;6.70;69.20;;;;;;2101514;28;20450;-60
2021/01/13 06:18:40;;;;;;;15.68;8.93;;;6.70;69.30;;;;;;2108930;28;20020;-62
2021/01/13 06:20:03;;;;;;;13.38;8.40;;;6.70;69.20;;;;;;2108813;28;20019;-61
2021/01/13 06:21:24;;;;;;;11.30;8.45;;;6.60;69.10;;;;;;2110593;28;20024;-61
2021/01/13 06:22:48;;;;;;;12.77;7.60;;;6.70;69.20;;;;;;2096721;28;21088;-59
2021/01/13 06:24:12;;;;;;;15.05;8.20;;;6.60;69.20;;;;;;2104366;28;20079;-59
2021/01/13 06:25:33;;;;;;;10.35;8.00;;;6.60;69.20;;;;;;2102778;28;20031;-59
2021/01/13 06:27:14;;;;;;;15.15;8.18;;;6.60;69.20;;;;;;2103968;28;20661;-60
2021/01/13 06:28:58;;;;;;;13.48;8.32;;;6.60;69.20;;;;;;2104590;28;20032;-60
2021/01/13 06:30:29;;;;;;;11.60;8.27;;;6.60;69.30;;;;;;2083021;28;20045;-60
2021/01/13 06:31:57;;;;;;;18.40;8.88;;;6.50;69.10;;;;;;2095534;28;20024;-58
2021/01/13 06:33:22;;;;;;;14.05;8.50;;;6.50;69.00;;;;;;2105066;28;20084;-59
2021/01/13 06:34:54;;;;;;;10.88;8.13;;;6.50;69.00;;;;;;2105096;28;20090;-60
2021/01/13 06:36:50;;;;;;;14.45;8.38;;;6.50;69.00;;;;;;2104530;28;20020;-61
2021/01/13 06:38:25;;;;;;;13.60;8.57;;;6.50;69.10;;;;;;2104478;28;20051;-60
2021/01/13 06:39:46;;;;;;;12.15;8.55;;;6.50;69.10;;;;;;2104341;28;20036;-61
2021/01/13 06:41:07;;;;;;;12.82;7.63;;;6.50;69.00;;;;;;2099111;28;20048;-60
2021/01/13 06:42:31;;;;;;;14.43;8.63;;;6.40;69.00;;;;;;2102933;28;20539;-60
2021/01/13 06:44:06;;;;;;;9.75;8.52;;;6.40;69.10;;;;;;2105219;28;20034;-61
2021/01/13 06:45:33;;;;;;;17.65;8.57;;;6.40;69.10;;;;;;2105607;28;20063;-61
2021/01/13 06:47:02;;;;;;;12.27;8.48;;;6.40;69.20;;;;;;2104531;28;20328;-60
2021/01/13 06:48:28;;;;;;;16.83;8.27;;;6.40;69.20;;;;;;2104474;28;20031;-60
2021/01/13 06:49:49;;;;;;;14.27;8.70;;;6.40;69.30;;;;;;2105381;28;20138;-60
2021/01/13 06:51:15;;;;;;;13.90;8.23;;;6.40;69.20;;;;;;2102897;28;20024;-60
2021/01/13 06:52:36;;;;;;;10.48;8.10;;;6.40;69.20;;;;;;2105329;28;20066;-61
2021/01/13 06:54:05;;;;;;;11.10;8.07;;;6.40;69.10;;;;;;2102759;28;20027;-61
2021/01/13 06:55:31;;;;;;;18.63;9.52;;;6.40;69.20;;;;;;2105792;28;20344;-60
2021/01/13 06:56:58;;;;;;;15.75;9.65;;;6.30;69.10;;;;;;2105963;28;20028;-60
2021/01/13 06:58:19;;;;;;;12.50;8.60;;;6.30;69.10;;;;;;2104210;28;20024;-60
2021/01/13 06:59:40;;;;;;;10.88;8.82;;;6.30;69.10;;;;;;2103449;28;20032;-60
2021/01/13 07:01:02;;;;;;;16.48;9.50;;;6.30;69.20;;;;;;2104785;28;20048;-61
2021/01/13 07:02:34;;;;;;;15.90;9.30;;;6.30;69.20;;;;;;2101727;28;20036;-61
2021/01/13 07:04:01;;;;;;;11.90;9.50;;;6.30;69.30;;;;;;2104857;28;20687;-60
2021/01/13 07:05:40;;;;;;;13.95;9.50;;;6.30;69.30;;;;;;2104196;28;20028;-60
2021/01/13 07:07:05;;;;;;;19.70;10.48;;;6.30;69.40;;;;;;2104819;28;20036;-61
2021/01/13 07:08:27;;;;;;;13.82;9.13;;;6.30;69.30;;;;;;2105751;28;20082;-61
2021/01/13 07:09:49;;;;;;;17.00;9.15;;;6.30;69.30;;;;;;2104406;28;20040;-61
2021/01/13 07:11:11;;;;;;;16.67;10.23;;;6.30;69.30;;;;;;2104551;28;20032;-61
2021/01/13 07:12:31;;;;;;;14.93;9.57;;;6.30;69.30;;;;;;2105193;28;20150;-60
2021/01/13 07:13:55;;;;;;;11.65;9.55;;;6.30;69.40;;;;;;2106129;28;20024;-60
2021/01/13 07:15:17;;;;;;;17.00;9.98;;;6.20;69.30;;;;;;2103864;28;20035;-60
2021/01/13 07:16:40;;;;;;;16.48;10.10;;;6.30;69.40;;;;;;2104912;28;20020;-60
2021/01/13 07:18:04;;;;;;;19.25;11.25;;;6.30;69.50;;;;;;2103324;28;20378;-60
2021/01/13 07:19:25;;;;;;;14.00;9.48;;;6.30;69.50;;;;;;2104021;28;20459;-60
2021/01/13 07:20:48;;;;;;;14.80;9.73;;;6.20;69.50;;;;;;2103323;28;20036;-60
2021/01/13 07:22:10;;;;;;;13.63;9.52;;;6.30;69.60;;;;;;2101214;28;20031;-60
2021/01/13 07:23:32;;;;;;;18.73;10.45;;;6.20;69.50;;;;;;2106078;28;20023;-60
2021/01/13 07:24:54;;;;;;;17.35;9.68;;;6.20;69.60;;;;;;2104723;28;20051;-60
2021/01/13 07:26:15;;;;;;;18.55;9.80;;;6.20;69.60;;;;;;2105508;28;20036;-60
2021/01/13 07:27:36;;;;;;;14.30;9.68;;;6.20;69.60;;;;;;2102969;28;20035;-60
2021/01/13 07:28:57;;;;;;;15.40;10.07;;;6.20;69.60;;;;;;2103501;28;20788;-59